createdAt,value
2019-02-17T00:00:57.914Z,3.30
2019-02-17T00:03:27.156Z,3.30
2019-02-17T00:05:56.431Z,3.30
2019-02-17T00:08:25.702Z,3.30
2019-02-17T00:10:54.943Z,3.30
2019-02-17T00:13:24.156Z,3.30
2019-02-17T00:15:53.398Z,3.30
2019-02-17T00:18:22.637Z,3.30
2019-02-17T00:20:51.931Z,3.30
2019-02-17T00:23:21.169Z,3.30
2019-02-17T00:25:50.376Z,3.30
2019-02-17T00:28:19.620Z,3.30
2019-02-17T00:30:48.888Z,3.30
2019-02-17T00:33:18.178Z,3.20
2019-02-17T00:35:47.744Z,3.20
2019-02-17T00:38:16.986Z,3.20
2019-02-17T00:40:46.194Z,3.20
2019-02-17T00:43:15.433Z,3.20
2019-02-17T00:45:44.655Z,3.10
2019-02-17T00:48:13.962Z,3.10
2019-02-17T00:50:43.172Z,3.10
2019-02-17T00:53:12.444Z,3.10
2019-02-17T00:55:42.660Z,3.00
2019-02-17T00:58:11.896Z,2.90
2019-02-17T01:00:41.107Z,2.80
2019-02-17T01:03:10.348Z,2.80
2019-02-17T01:05:39.565Z,2.80
2019-02-17T01:08:10.044Z,2.80
2019-02-17T01:10:39.279Z,2.80
2019-02-17T01:13:08.527Z,2.80
2019-02-17T01:15:37.754Z,2.80
2019-02-17T01:18:06.956Z,2.70
2019-02-17T01:20:36.187Z,2.70
2019-02-17T01:23:05.483Z,2.70
2019-02-17T01:25:34.844Z,2.70
2019-02-17T01:28:04.164Z,2.70
2019-02-17T01:30:33.399Z,2.70
2019-02-17T01:33:02.636Z,2.70
2019-02-17T01:35:31.849Z,2.70
2019-02-17T01:38:01.115Z,2.60
2019-02-17T01:40:30.311Z,2.60
2019-02-17T01:42:59.552Z,2.60
2019-02-17T01:45:28.788Z,2.50
2019-02-17T01:47:58.020Z,2.50
2019-02-17T01:50:27.267Z,2.50
2019-02-17T01:52:56.473Z,2.40
2019-02-17T01:55:25.730Z,2.40
2019-02-17T01:57:54.933Z,2.30
2019-02-17T02:00:25.905Z,2.30
2019-02-17T02:02:55.101Z,2.30
2019-02-17T02:05:24.289Z,2.20
2019-02-17T02:07:53.545Z,2.20
2019-02-17T02:10:22.851Z,2.20
2019-02-17T02:12:52.070Z,2.20
2019-02-17T02:15:21.264Z,2.20
2019-02-17T02:17:50.436Z,2.20
2019-02-17T02:20:19.620Z,2.20
2019-02-17T02:22:48.802Z,2.20
2019-02-17T02:25:17.987Z,2.20
2019-02-17T02:27:47.180Z,2.10
2019-02-17T02:30:16.376Z,2.20
2019-02-17T02:32:45.555Z,2.20
2019-02-17T02:35:14.741Z,2.30
2019-02-17T02:37:43.904Z,2.30
2019-02-17T02:40:13.101Z,2.30
2019-02-17T02:42:42.284Z,2.40
2019-02-17T02:45:11.629Z,2.30
2019-02-17T02:47:40.817Z,2.20
2019-02-17T02:50:13.020Z,2.20
2019-02-17T02:52:42.256Z,2.20
2019-02-17T02:55:11.416Z,2.10
2019-02-17T02:57:40.647Z,2.10
2019-02-17T03:00:11.237Z,2.10
2019-02-17T03:02:40.438Z,2.10
2019-02-17T03:05:09.781Z,2.10
2019-02-17T03:07:38.960Z,2.10
2019-02-17T03:10:09.683Z,2.20
2019-02-17T03:12:38.875Z,2.20
2019-02-17T03:15:09.777Z,2.20
2019-02-17T03:17:38.962Z,2.30
2019-02-17T03:20:09.586Z,2.30
2019-02-17T03:22:38.755Z,2.30
2019-02-17T03:25:08.051Z,2.30
2019-02-17T03:27:37.295Z,2.30
2019-02-17T03:30:09.619Z,2.30
2019-02-17T03:32:39.786Z,2.30
2019-02-17T03:35:08.978Z,2.20
2019-02-17T03:37:38.162Z,2.20
2019-02-17T03:40:08.888Z,2.10
2019-02-17T03:42:38.064Z,2.00
2019-02-17T03:45:09.577Z,2.00
2019-02-17T03:47:38.778Z,1.90
2019-02-17T03:50:07.978Z,1.80
2019-02-17T03:52:37.488Z,1.80
2019-02-17T03:55:06.832Z,1.80
2019-02-17T03:57:36.299Z,1.70
2019-02-17T04:00:16.404Z,1.70
2019-02-17T04:02:38.231Z,1.70
2019-02-17T04:05:07.470Z,1.70
2019-02-17T04:07:36.665Z,1.60
2019-02-17T04:10:06.991Z,1.60
2019-02-17T04:12:36.167Z,1.60
2019-02-17T04:15:06.402Z,1.60
2019-02-17T04:17:35.584Z,1.70
2019-02-17T04:20:05.704Z,1.60
2019-02-17T04:22:35.265Z,1.60
2019-02-17T04:25:05.511Z,1.60
2019-02-17T04:27:34.749Z,1.60
2019-02-17T04:30:04.957Z,1.50
2019-02-17T04:32:34.145Z,1.50
2019-02-17T04:35:03.666Z,1.50
2019-02-17T04:37:32.855Z,1.50
2019-02-17T04:40:02.043Z,1.50
2019-02-17T04:42:31.286Z,1.60
2019-02-17T04:45:00.452Z,1.50
2019-02-17T04:47:29.659Z,1.60
2019-02-17T04:49:58.830Z,1.60
2019-02-17T04:52:28.049Z,1.50
2019-02-17T04:54:57.237Z,1.50
2019-02-17T04:57:26.408Z,1.50
2019-02-17T04:59:55.927Z,1.40
2019-02-17T05:02:25.325Z,1.40
2019-02-17T05:04:54.526Z,1.40
2019-02-17T05:07:23.695Z,1.40
2019-02-17T05:09:52.879Z,1.40
2019-02-17T05:12:22.045Z,1.50
2019-02-17T05:14:51.237Z,1.50
2019-02-17T05:17:20.413Z,1.50
2019-02-17T05:19:49.628Z,1.50
2019-02-17T05:22:18.784Z,1.50
2019-02-17T05:24:47.996Z,1.40
2019-02-17T05:27:17.210Z,1.30
2019-02-17T05:29:46.416Z,1.30
2019-02-17T05:32:15.628Z,1.20
2019-02-17T05:34:44.829Z,1.20
2019-02-17T05:37:14.172Z,1.30
2019-02-17T05:39:44.294Z,1.30
2019-02-17T05:42:13.521Z,1.30
2019-02-17T05:44:42.754Z,1.30
2019-02-17T05:47:12.001Z,1.30
2019-02-17T05:49:41.208Z,1.30
2019-02-17T05:52:10.452Z,1.30
2019-02-17T05:54:39.643Z,1.40
2019-02-17T05:57:09.133Z,1.40
2019-02-17T05:59:38.314Z,1.40
2019-02-17T06:02:07.493Z,1.40
2019-02-17T06:04:36.683Z,1.40
2019-02-17T06:07:05.877Z,1.40
2019-02-17T06:09:35.053Z,1.40
2019-02-17T06:12:04.330Z,1.40
2019-02-17T06:14:33.530Z,1.40
2019-02-17T06:17:02.714Z,1.40
2019-02-17T06:19:31.879Z,1.50
2019-02-17T06:22:01.065Z,1.50
2019-02-17T06:24:30.287Z,1.50
2019-02-17T06:26:59.451Z,1.50
2019-02-17T06:29:28.652Z,1.60
2019-02-17T06:31:57.824Z,1.60
2019-02-17T06:34:27.020Z,1.60
2019-02-17T06:36:56.237Z,1.60
2019-02-17T06:39:25.730Z,1.60
2019-02-17T06:41:54.900Z,1.60
2019-02-17T06:44:24.092Z,1.70
2019-02-17T06:46:54.636Z,1.70
2019-02-17T06:49:23.842Z,1.70
2019-02-17T06:51:53.021Z,1.70
2019-02-17T06:54:22.261Z,1.70
2019-02-17T06:56:55.873Z,1.70
2019-02-17T06:59:25.064Z,1.70
2019-02-17T07:01:54.231Z,1.70
2019-02-17T07:04:25.102Z,1.70
2019-02-17T07:06:55.985Z,1.70
2019-02-17T07:09:25.173Z,1.70
2019-02-17T07:11:56.891Z,1.80
2019-02-17T07:14:25.252Z,1.80
2019-02-17T07:16:54.513Z,1.80
2019-02-17T07:19:23.722Z,1.80
2019-02-17T07:21:52.901Z,1.90
2019-02-17T07:24:22.130Z,2.00
2019-02-17T07:26:51.357Z,2.00
2019-02-17T07:29:20.545Z,2.10
2019-02-17T07:31:49.716Z,2.20
2019-02-17T07:34:18.917Z,2.30
2019-02-17T07:36:48.097Z,2.40
2019-02-17T07:39:17.289Z,2.40
2019-02-17T07:41:46.458Z,2.50
2019-02-17T07:44:15.974Z,2.60
2019-02-17T07:46:45.159Z,2.60
2019-02-17T07:49:14.352Z,2.70
2019-02-17T07:51:43.549Z,2.70
2019-02-17T07:54:12.736Z,2.80
2019-02-17T07:56:41.910Z,2.80
2019-02-17T07:59:11.101Z,2.80
2019-02-17T08:01:45.219Z,2.90
2019-02-17T08:04:11.552Z,3.00
2019-02-17T08:06:40.826Z,3.00
2019-02-17T08:09:10.005Z,3.10
2019-02-17T08:11:39.193Z,3.20
2019-02-17T08:14:08.394Z,3.30
2019-02-17T08:16:37.568Z,3.40
2019-02-17T08:19:06.943Z,3.50
2019-02-17T08:21:36.160Z,3.60
2019-02-17T08:24:05.347Z,3.70
2019-02-17T08:26:34.549Z,3.80
2019-02-17T08:29:03.743Z,3.80
2019-02-17T08:31:32.918Z,3.90
2019-02-17T08:34:02.118Z,4.00
2019-02-17T08:36:31.613Z,4.10
2019-02-17T08:39:00.881Z,4.20
2019-02-17T08:41:30.230Z,4.30
2019-02-17T08:44:00.932Z,4.30
2019-02-17T08:46:30.681Z,4.40
2019-02-17T08:48:59.871Z,4.50
2019-02-17T08:51:29.050Z,4.60
2019-02-17T08:53:59.295Z,4.60
2019-02-17T08:56:28.508Z,4.70
2019-02-17T08:58:57.680Z,4.80
2019-02-17T09:01:26.883Z,4.80
2019-02-17T09:03:56.078Z,4.90
2019-02-17T09:06:25.251Z,5.00
2019-02-17T09:08:54.624Z,5.00
2019-02-17T09:11:23.785Z,5.10
2019-02-17T09:13:53.006Z,5.20
2019-02-17T09:16:22.172Z,5.30
2019-02-17T09:18:51.361Z,5.40
2019-02-17T09:21:20.544Z,5.50
2019-02-17T09:23:49.736Z,5.60
2019-02-17T09:26:18.909Z,5.70
2019-02-17T09:28:48.155Z,5.80
2019-02-17T09:31:17.439Z,5.90
2019-02-17T09:33:46.660Z,6.00
2019-02-17T09:36:15.885Z,6.10
2019-02-17T09:38:45.126Z,6.20
2019-02-17T09:41:14.297Z,6.40
2019-02-17T09:43:45.557Z,6.50
2019-02-17T09:46:14.361Z,6.60
2019-02-17T09:48:43.924Z,6.70
2019-02-17T09:51:13.147Z,6.80
2019-02-17T09:53:42.328Z,6.90
2019-02-17T09:56:11.511Z,7.00
2019-02-17T09:58:40.693Z,7.10
2019-02-17T10:01:10.124Z,7.20
2019-02-17T10:03:39.315Z,7.30
2019-02-17T10:06:08.518Z,7.30
2019-02-17T10:08:37.729Z,7.50
2019-02-17T10:11:06.916Z,7.50
2019-02-17T10:13:36.093Z,7.60
2019-02-17T10:16:05.281Z,7.70
2019-02-17T10:18:34.452Z,7.80
2019-02-17T10:21:03.689Z,7.90
2019-02-17T10:23:32.870Z,7.90
2019-02-17T10:26:02.103Z,8.00
2019-02-17T10:28:41.607Z,8.00
2019-02-17T10:31:02.484Z,8.10
2019-02-17T10:33:31.669Z,8.20
2019-02-17T10:36:00.874Z,8.20
2019-02-17T10:38:30.042Z,8.30
2019-02-17T10:40:59.237Z,8.40
2019-02-17T10:43:28.411Z,8.50
2019-02-17T10:45:57.881Z,8.50
2019-02-17T10:48:27.078Z,8.60
2019-02-17T10:50:56.424Z,8.60
2019-02-17T10:53:26.153Z,8.70
2019-02-17T10:55:55.331Z,8.80
2019-02-17T10:58:24.524Z,8.90
2019-02-17T11:00:53.774Z,9.00
2019-02-17T11:03:22.972Z,9.00
2019-02-17T11:05:52.146Z,9.00
2019-02-17T11:08:21.348Z,9.10
2019-02-17T11:10:50.520Z,9.10
2019-02-17T11:13:19.708Z,9.20
2019-02-17T11:15:48.892Z,9.30
2019-02-17T11:18:18.111Z,9.40
2019-02-17T11:20:47.291Z,9.40
2019-02-17T11:23:16.468Z,9.50
2019-02-17T11:25:46.737Z,9.50
2019-02-17T11:28:15.938Z,9.60
2019-02-17T11:30:45.113Z,9.60
2019-02-17T11:33:14.312Z,9.60
2019-02-17T11:35:43.491Z,9.70
2019-02-17T11:38:12.684Z,9.70
2019-02-17T11:40:41.864Z,9.80
2019-02-17T11:43:11.056Z,9.80
2019-02-17T11:45:40.227Z,9.80
2019-02-17T11:48:09.421Z,9.80
2019-02-17T11:50:38.597Z,9.80
2019-02-17T11:53:07.805Z,9.80
2019-02-17T11:55:37.021Z,9.80
2019-02-17T11:58:06.229Z,9.80
2019-02-17T12:00:35.400Z,9.80
2019-02-17T12:03:07.924Z,9.80
2019-02-17T12:05:35.537Z,9.90
2019-02-17T12:08:04.739Z,10.00
2019-02-17T12:10:33.910Z,10.10
2019-02-17T12:13:03.121Z,10.20
2019-02-17T12:15:32.309Z,10.30
2019-02-17T12:18:01.510Z,10.40
2019-02-17T12:20:41.563Z,10.50
2019-02-17T12:23:21.836Z,10.60
2019-02-17T12:25:52.661Z,10.70
2019-02-17T12:28:32.721Z,10.70
2019-02-17T12:31:01.902Z,10.80
2019-02-17T12:33:31.089Z,10.90
2019-02-17T12:36:00.282Z,10.90
2019-02-17T12:38:29.773Z,11.00
2019-02-17T12:40:59.072Z,11.00
2019-02-17T12:43:28.257Z,11.10
2019-02-17T12:45:57.459Z,11.20
2019-02-17T12:48:26.635Z,11.20
2019-02-17T12:50:55.829Z,11.30
2019-02-17T12:53:25.338Z,11.30
2019-02-17T12:55:54.547Z,11.40
2019-02-17T12:58:29.991Z,11.30
2019-02-17T13:00:54.656Z,11.40
2019-02-17T13:03:28.429Z,11.50
2019-02-17T13:05:54.733Z,11.50
2019-02-17T13:08:23.910Z,11.60
2019-02-17T13:10:54.173Z,11.60
2019-02-17T13:13:23.376Z,11.60
2019-02-17T13:15:52.572Z,11.70
2019-02-17T13:18:21.746Z,11.70
2019-02-17T13:20:51.233Z,11.80
2019-02-17T13:23:20.404Z,11.80
2019-02-17T13:25:49.840Z,11.90
2019-02-17T13:28:20.095Z,11.90
2019-02-17T13:30:49.281Z,12.00
2019-02-17T13:33:18.513Z,12.10
2019-02-17T13:35:47.687Z,12.10
2019-02-17T13:38:16.900Z,12.10
2019-02-17T13:40:46.124Z,12.20
2019-02-17T13:43:15.316Z,12.30
2019-02-17T13:45:44.946Z,12.40
2019-02-17T13:48:14.276Z,12.40
2019-02-17T13:50:43.475Z,12.50
2019-02-17T13:53:13.728Z,12.50
2019-02-17T13:55:42.925Z,12.60
2019-02-17T13:58:12.121Z,12.60
2019-02-17T14:00:41.296Z,12.60
2019-02-17T14:03:10.530Z,12.70
2019-02-17T14:05:39.729Z,12.70
2019-02-17T14:08:08.905Z,12.70
2019-02-17T14:10:38.095Z,12.70
2019-02-17T14:13:07.281Z,12.70
2019-02-17T14:15:36.482Z,12.70
2019-02-17T14:18:05.674Z,12.70
2019-02-17T14:20:34.866Z,12.70
2019-02-17T14:23:04.064Z,12.80
2019-02-17T14:25:33.319Z,12.80
2019-02-17T14:28:02.506Z,12.80
2019-02-17T14:30:31.702Z,12.70
2019-02-17T14:33:00.884Z,12.80
2019-02-17T14:35:30.100Z,12.80
2019-02-17T14:37:59.274Z,12.70
2019-02-17T14:40:29.541Z,12.70
2019-02-17T14:42:58.733Z,12.70
2019-02-17T14:45:27.934Z,12.70
2019-02-17T14:47:57.131Z,12.60
2019-02-17T14:50:26.319Z,12.60
2019-02-17T14:52:55.529Z,12.60
2019-02-17T14:55:24.714Z,12.60
2019-02-17T14:57:53.901Z,12.60
2019-02-17T15:00:23.170Z,12.60
2019-02-17T15:02:52.373Z,12.50
2019-02-17T15:05:22.625Z,12.50
2019-02-17T15:07:51.822Z,12.50
2019-02-17T15:10:21.001Z,12.50
2019-02-17T15:12:50.529Z,12.50
2019-02-17T15:15:19.711Z,12.50
2019-02-17T15:17:48.981Z,12.50
2019-02-17T15:20:21.183Z,12.50
2019-02-17T15:22:50.396Z,12.50
2019-02-17T15:25:19.668Z,12.50
2019-02-17T15:27:49.204Z,12.60
2019-02-17T15:30:18.413Z,12.60
2019-02-17T15:32:47.609Z,12.60
2019-02-17T15:35:16.801Z,12.60
2019-02-17T15:37:46.175Z,12.60
2019-02-17T15:40:15.825Z,12.60
2019-02-17T15:42:45.065Z,12.60
2019-02-17T15:45:14.519Z,12.60
2019-02-17T15:47:43.791Z,12.60
2019-02-17T15:50:14.116Z,12.60
2019-02-17T15:52:43.557Z,12.60
2019-02-17T15:55:13.987Z,12.60
2019-02-17T15:57:43.218Z,12.60
2019-02-17T16:00:17.593Z,12.60
2019-02-17T16:02:47.341Z,12.60
2019-02-17T16:05:16.616Z,12.50
2019-02-17T16:07:45.840Z,12.60
2019-02-17T16:10:16.385Z,12.60
2019-02-17T16:12:45.766Z,12.60
2019-02-17T16:15:20.662Z,12.50
2019-02-17T16:17:50.011Z,12.50
2019-02-17T16:20:21.266Z,12.50
2019-02-17T16:22:50.442Z,12.40
2019-02-17T16:25:19.625Z,12.40
2019-02-17T16:27:48.804Z,12.30
2019-02-17T16:30:19.951Z,12.20
2019-02-17T16:32:49.497Z,12.10
2019-02-17T16:35:18.825Z,12.10
2019-02-17T16:37:48.055Z,12.00
2019-02-17T16:40:18.182Z,11.80
2019-02-17T16:42:47.364Z,11.70
2019-02-17T16:45:16.558Z,11.60
2019-02-17T16:47:45.753Z,11.50
2019-02-17T16:50:27.653Z,11.40
2019-02-17T16:52:56.885Z,11.30
2019-02-17T16:55:26.095Z,11.10
2019-02-17T16:57:55.277Z,10.90
2019-02-17T17:00:27.559Z,10.80
2019-02-17T17:02:57.243Z,10.60
2019-02-17T17:05:26.458Z,10.40
2019-02-17T17:07:56.714Z,10.30
2019-02-17T17:10:26.368Z,10.20
2019-02-17T17:12:55.540Z,10.00
2019-02-17T17:15:24.736Z,9.80
2019-02-17T17:17:53.934Z,9.70
2019-02-17T17:20:23.432Z,9.60
2019-02-17T17:22:52.608Z,9.50
2019-02-17T17:25:21.811Z,9.30
2019-02-17T17:27:51.006Z,9.20
2019-02-17T17:30:20.269Z,9.10
2019-02-17T17:32:49.444Z,9.10
2019-02-17T17:35:18.649Z,9.00
2019-02-17T17:37:48.028Z,9.00
2019-02-17T17:40:18.244Z,9.00
2019-02-17T17:42:50.450Z,8.90
2019-02-17T17:45:21.017Z,8.90
2019-02-17T17:47:50.452Z,8.90
2019-02-17T17:50:19.808Z,8.90
2019-02-17T17:52:49.212Z,8.90
2019-02-17T17:55:21.901Z,8.90
2019-02-17T17:57:51.735Z,8.90
2019-02-17T18:00:22.658Z,8.80
2019-02-17T18:02:51.854Z,8.70
2019-02-17T18:05:21.056Z,8.60
2019-02-17T18:07:50.247Z,8.60
2019-02-17T18:10:19.829Z,8.50
2019-02-17T18:12:49.018Z,8.50
2019-02-17T18:15:19.549Z,8.50
2019-02-17T18:17:54.245Z,8.50
2019-02-17T18:20:19.639Z,8.50
2019-02-17T18:22:50.220Z,8.50
2019-02-17T18:25:19.402Z,8.50
2019-02-17T18:27:48.626Z,8.50
2019-02-17T18:30:20.186Z,8.40
2019-02-17T18:32:49.377Z,8.30
2019-02-17T18:35:20.328Z,8.30
2019-02-17T18:37:49.462Z,8.20
2019-02-17T18:40:19.518Z,8.10
2019-02-17T18:42:49.993Z,8.10
2019-02-17T18:45:19.451Z,8.00
2019-02-17T18:47:48.912Z,8.00
2019-02-17T18:50:19.393Z,7.90
2019-02-17T18:52:48.623Z,7.80
2019-02-17T18:55:17.925Z,7.80
2019-02-17T18:57:50.809Z,7.70
2019-02-17T19:00:20.815Z,7.70
2019-02-17T19:02:50.011Z,7.60
2019-02-17T19:05:21.615Z,7.50
2019-02-17T19:07:50.417Z,7.40
2019-02-17T19:10:19.616Z,7.30
2019-02-17T19:12:49.170Z,7.20
2019-02-17T19:15:22.267Z,7.20
2019-02-17T19:17:51.461Z,7.10
2019-02-17T19:20:23.955Z,7.00
2019-02-17T19:22:53.143Z,6.90
2019-02-17T19:25:22.434Z,6.90
2019-02-17T19:27:51.640Z,6.90
2019-02-17T19:30:21.133Z,6.80
2019-02-17T19:32:52.270Z,6.80
2019-02-17T19:35:21.574Z,6.80
2019-02-17T19:37:50.911Z,6.80
2019-02-17T19:40:20.116Z,6.80
2019-02-17T19:42:49.298Z,6.80
2019-02-17T19:45:19.691Z,6.80
2019-02-17T19:47:48.924Z,6.80
2019-02-17T19:50:18.131Z,6.80
2019-02-17T19:52:47.383Z,6.70
2019-02-17T19:55:16.616Z,6.70
2019-02-17T19:57:45.820Z,6.70
2019-02-17T20:00:20.141Z,6.70
2019-02-17T20:02:54.132Z,6.70
2019-02-17T20:05:31.003Z,6.70
2019-02-17T20:08:00.527Z,6.60
2019-02-17T20:10:29.735Z,6.60
2019-02-17T20:12:58.915Z,6.50
2019-02-17T20:15:32.629Z,6.50
2019-02-17T20:18:01.854Z,6.40
2019-02-17T20:20:31.999Z,6.40
2019-02-17T20:23:01.222Z,6.30
2019-02-17T20:25:31.772Z,6.30
2019-02-17T20:28:01.047Z,6.20
2019-02-17T20:30:30.286Z,6.20
2019-02-17T20:32:59.490Z,6.20
2019-02-17T20:35:28.722Z,6.20
2019-02-17T20:37:57.942Z,6.10
2019-02-17T20:40:27.134Z,6.10
2019-02-17T20:42:56.344Z,6.00
2019-02-17T20:45:25.869Z,6.00
2019-02-17T20:47:55.083Z,6.00
2019-02-17T20:50:24.281Z,5.90
2019-02-17T20:52:53.479Z,5.80
2019-02-17T20:55:22.679Z,5.70
2019-02-17T20:57:51.874Z,5.60
2019-02-17T21:00:23.130Z,5.50
2019-02-17T21:02:52.366Z,5.50
2019-02-17T21:05:21.934Z,5.60
2019-02-17T21:07:51.151Z,5.60
2019-02-17T21:10:20.351Z,5.50
2019-02-17T21:12:49.718Z,5.50
2019-02-17T21:15:21.598Z,5.50
2019-02-17T21:17:50.850Z,5.50
2019-02-17T21:20:20.301Z,5.30
2019-02-17T21:22:49.507Z,5.30
2019-02-17T21:25:18.702Z,5.20
2019-02-17T21:27:47.959Z,5.20
2019-02-17T21:30:18.520Z,5.20
2019-02-17T21:32:47.893Z,5.30
2019-02-17T21:35:17.399Z,5.30
2019-02-17T21:37:46.945Z,5.20
2019-02-17T21:40:16.379Z,5.30
2019-02-17T21:42:45.541Z,5.30
2019-02-17T21:45:15.838Z,5.30
2019-02-17T21:47:45.114Z,5.20
2019-02-17T21:50:15.843Z,5.20
2019-02-17T21:52:45.122Z,5.20
2019-02-17T21:55:15.141Z,5.20
2019-02-17T21:57:44.628Z,5.20
2019-02-17T22:00:19.761Z,5.20
2019-02-17T22:02:50.245Z,5.10
2019-02-17T22:05:20.558Z,5.10
2019-02-17T22:07:49.810Z,5.00
2019-02-17T22:10:19.825Z,5.00
2019-02-17T22:12:51.114Z,4.90
2019-02-17T22:15:21.299Z,4.90
2019-02-17T22:17:50.912Z,4.80
2019-02-17T22:20:20.186Z,4.70
2019-02-17T22:22:49.501Z,4.70
2019-02-17T22:25:18.690Z,4.60
2019-02-17T22:27:47.880Z,4.50
2019-02-17T22:30:17.059Z,4.40
2019-02-17T22:32:46.544Z,4.30
2019-02-17T22:35:15.712Z,4.30
2019-02-17T22:37:44.897Z,4.20
2019-02-17T22:40:15.817Z,4.20
2019-02-17T22:42:45.042Z,4.20
2019-02-17T22:45:14.244Z,4.10
2019-02-17T22:47:43.524Z,4.00
2019-02-17T22:50:15.880Z,3.90
2019-02-17T22:52:45.341Z,3.90
2019-02-17T22:55:14.876Z,3.80
2019-02-17T22:57:44.382Z,3.70
2019-02-17T23:00:30.284Z,3.70
2019-02-17T23:02:59.928Z,3.70
2019-02-17T23:05:29.125Z,3.60
2019-02-17T23:07:58.644Z,3.50
2019-02-17T23:10:28.899Z,3.50
2019-02-17T23:12:58.087Z,3.30
2019-02-17T23:15:27.268Z,3.30
2019-02-17T23:17:56.456Z,3.30
2019-02-17T23:20:25.654Z,3.30
2019-02-17T23:22:54.827Z,3.20
2019-02-17T23:25:24.194Z,3.20
2019-02-17T23:27:53.380Z,3.20
2019-02-17T23:30:22.573Z,3.20
2019-02-17T23:32:52.139Z,3.10
2019-02-17T23:35:21.357Z,3.10
2019-02-17T23:37:50.718Z,3.10
2019-02-17T23:40:19.909Z,3.00
2019-02-17T23:42:49.151Z,3.00
2019-02-17T23:45:18.357Z,3.00
2019-02-17T23:47:47.521Z,3.00
2019-02-17T23:50:16.723Z,3.00
2019-02-17T23:52:45.924Z,2.90
2019-02-17T23:55:15.116Z,2.90
2019-02-17T23:57:44.288Z,2.90
